sensor_id;sensor_type;location;lat;lon;timestamp;pressure;altitude;pressure_sealevel;temperature
71205;BMP180;58935;54.498;18.544;2022-09-14T00:00:11;99230.40;;;13.00
71205;BMP180;58935;54.498;18.544;2022-09-14T00:02:36;99231.40;;;12.98
71205;BMP180;58935;54.498;18.544;2022-09-14T00:05:02;99219.60;;;13.00
71205;BMP180;58935;54.498;18.544;2022-09-14T00:07:27;99220.60;;;13.00
71205;BMP180;58935;54.498;18.544;2022-09-14T00:09:53;99209.40;;;13.00
71205;BMP180;58935;54.498;18.544;2022-09-14T00:12:18;99215.00;;;13.00
71205;BMP180;58935;54.498;18.544;2022-09-14T00:14:44;99201.60;;;13.00
71205;BMP180;58935;54.498;18.544;2022-09-14T00:17:10;99204.20;;;13.00
71205;BMP180;58935;54.498;18.544;2022-09-14T00:19:35;99201.80;;;13.00
71205;BMP180;58935;54.498;18.544;2022-09-14T00:22:00;99201.00;;;13.00
71205;BMP180;58935;54.498;18.544;2022-09-14T00:24:28;99192.00;;;13.00
71205;BMP180;58935;54.498;18.544;2022-09-14T00:26:55;99195.20;;;13.00
71205;BMP180;58935;54.498;18.544;2022-09-14T00:29:21;99191.60;;;13.00
71205;BMP180;58935;54.498;18.544;2022-09-14T00:31:48;99186.20;;;13.00
71205;BMP180;58935;54.498;18.544;2022-09-14T00:34:15;99180.80;;;13.10
71205;BMP180;58935;54.498;18.544;2022-09-14T00:36:43;99185.60;;;13.10
71205;BMP180;58935;54.498;18.544;2022-09-14T00:39:09;99182.00;;;13.10
71205;BMP180;58935;54.498;18.544;2022-09-14T00:41:38;99179.60;;;13.10
71205;BMP180;58935;54.498;18.544;2022-09-14T00:46:56;99180.40;;;13.20
71205;BMP180;58935;54.498;18.544;2022-09-14T00:49:30;99179.60;;;13.20
71205;BMP180;58935;54.498;18.544;2022-09-14T00:54:29;99185.40;;;13.30
71205;BMP180;58935;54.498;18.544;2022-09-14T00:56:56;99175.60;;;13.30
71205;BMP180;58935;54.498;18.544;2022-09-14T00:59:28;99173.00;;;13.30
71205;BMP180;58935;54.498;18.544;2022-09-14T01:01:55;99165.80;;;13.40
71205;BMP180;58935;54.498;18.544;2022-09-14T01:04:20;99164.40;;;13.40
71205;BMP180;58935;54.498;18.544;2022-09-14T01:10:43;99162.00;;;13.40
71205;BMP180;58935;54.498;18.544;2022-09-14T01:12:32;99160.20;;;13.40
71205;BMP180;58935;54.498;18.544;2022-09-14T01:15:06;99152.20;;;13.50
71205;BMP180;58935;54.498;18.544;2022-09-14T01:17:46;99142.00;;;13.50
71205;BMP180;58935;54.498;18.544;2022-09-14T01:20:22;99142.40;;;13.50
71205;BMP180;58935;54.498;18.544;2022-09-14T01:28:21;99134.00;;;13.60
71205;BMP180;58935;54.498;18.544;2022-09-14T01:30:49;99125.40;;;13.64
71205;BMP180;58935;54.498;18.544;2022-09-14T01:33:23;99137.40;;;13.70
71205;BMP180;58935;54.498;18.544;2022-09-14T01:35:53;99134.00;;;13.68
71205;BMP180;58935;54.498;18.544;2022-09-14T01:38:26;99144.00;;;13.70
71205;BMP180;58935;54.498;18.544;2022-09-14T01:40:54;99145.80;;;13.70
71205;BMP180;58935;54.498;18.544;2022-09-14T01:43:28;99146.00;;;13.70
71205;BMP180;58935;54.498;18.544;2022-09-14T01:45:59;99144.40;;;13.70
71205;BMP180;58935;54.498;18.544;2022-09-14T01:48:32;99138.00;;;13.70
71205;BMP180;58935;54.498;18.544;2022-09-14T01:51:04;99127.80;;;13.70
71205;BMP180;58935;54.498;18.544;2022-09-14T01:53:39;99135.60;;;13.70
71205;BMP180;58935;54.498;18.544;2022-09-14T01:56:11;99127.20;;;13.70
71205;BMP180;58935;54.498;18.544;2022-09-14T01:58:45;99122.80;;;13.70
71205;BMP180;58935;54.498;18.544;2022-09-14T02:01:15;99131.80;;;13.70
71205;BMP180;58935;54.498;18.544;2022-09-14T02:03:47;99132.20;;;13.68
71205;BMP180;58935;54.498;18.544;2022-09-14T02:06:20;99118.40;;;13.70
71205;BMP180;58935;54.498;18.544;2022-09-14T02:08:48;99116.00;;;13.70
71205;BMP180;58935;54.498;18.544;2022-09-14T02:11:14;99127.40;;;13.66
71205;BMP180;58935;54.498;18.544;2022-09-14T02:13:39;99130.80;;;13.60
71205;BMP180;58935;54.498;18.544;2022-09-14T02:16:04;99128.40;;;13.60
71205;BMP180;58935;54.498;18.544;2022-09-14T02:18:30;99120.80;;;13.60
71205;BMP180;58935;54.498;18.544;2022-09-14T02:20:59;99115.60;;;13.60
71205;BMP180;58935;54.498;18.544;2022-09-14T02:23:25;99117.20;;;13.60
71205;BMP180;58935;54.498;18.544;2022-09-14T02:25:51;99117.00;;;13.64
71205;BMP180;58935;54.498;18.544;2022-09-14T02:28:17;99114.80;;;13.60
71205;BMP180;58935;54.498;18.544;2022-09-14T02:30:54;99112.80;;;13.64
71205;BMP180;58935;54.498;18.544;2022-09-14T02:33:33;99112.60;;;13.70
71205;BMP180;58935;54.498;18.544;2022-09-14T02:36:06;99109.60;;;13.70
71205;BMP180;58935;54.498;18.544;2022-09-14T02:38:39;99104.00;;;13.70
71205;BMP180;58935;54.498;18.544;2022-09-14T02:41:15;99107.80;;;13.70
71205;BMP180;58935;54.498;18.544;2022-09-14T02:43:50;99098.40;;;13.70
71205;BMP180;58935;54.498;18.544;2022-09-14T02:46:29;99089.20;;;13.70
71205;BMP180;58935;54.498;18.544;2022-09-14T02:49:05;99092.60;;;13.70
71205;BMP180;58935;54.498;18.544;2022-09-14T02:51:40;99088.20;;;13.70
71205;BMP180;58935;54.498;18.544;2022-09-14T02:54:14;99094.40;;;13.70
71205;BMP180;58935;54.498;18.544;2022-09-14T02:56:41;99092.60;;;13.70
71205;BMP180;58935;54.498;18.544;2022-09-14T02:59:08;99094.20;;;13.70
71205;BMP180;58935;54.498;18.544;2022-09-14T03:01:34;99081.60;;;13.70
71205;BMP180;58935;54.498;18.544;2022-09-14T03:03:59;99084.40;;;13.70
71205;BMP180;58935;54.498;18.544;2022-09-14T03:06:25;99078.40;;;13.70
71205;BMP180;58935;54.498;18.544;2022-09-14T03:08:50;99085.00;;;13.70
71205;BMP180;58935;54.498;18.544;2022-09-14T03:11:16;99079.80;;;13.70
71205;BMP180;58935;54.498;18.544;2022-09-14T03:13:41;99087.20;;;13.70
71205;BMP180;58935;54.498;18.544;2022-09-14T03:16:09;99093.40;;;13.70
71205;BMP180;58935;54.498;18.544;2022-09-14T03:18:35;99082.80;;;13.74
71205;BMP180;58935;54.498;18.544;2022-09-14T03:21:04;99081.80;;;13.78
71205;BMP180;58935;54.498;18.544;2022-09-14T03:23:33;99082.40;;;13.80
71205;BMP180;58935;54.498;18.544;2022-09-14T03:25:59;99068.00;;;13.74
71205;BMP180;58935;54.498;18.544;2022-09-14T03:28:24;99085.00;;;13.74
71205;BMP180;58935;54.498;18.544;2022-09-14T03:30:50;99085.40;;;13.80
71205;BMP180;58935;54.498;18.544;2022-09-14T03:33:15;99092.80;;;13.80
71205;BMP180;58935;54.498;18.544;2022-09-14T03:35:40;99092.60;;;13.80
71205;BMP180;58935;54.498;18.544;2022-09-14T03:38:05;99095.00;;;13.80
71205;BMP180;58935;54.498;18.544;2022-09-14T03:40:31;99095.80;;;13.80
71205;BMP180;58935;54.498;18.544;2022-09-14T03:42:56;99087.20;;;13.80
71205;BMP180;58935;54.498;18.544;2022-09-14T03:45:22;99083.40;;;13.80
71205;BMP180;58935;54.498;18.544;2022-09-14T03:47:48;99080.40;;;13.82
71205;BMP180;58935;54.498;18.544;2022-09-14T03:50:15;99080.60;;;13.80
71205;BMP180;58935;54.498;18.544;2022-09-14T03:52:41;99083.60;;;13.80
71205;BMP180;58935;54.498;18.544;2022-09-14T03:55:07;99090.40;;;13.80
71205;BMP180;58935;54.498;18.544;2022-09-14T03:57:33;99088.20;;;13.80
71205;BMP180;58935;54.498;18.544;2022-09-14T03:59:59;99090.80;;;13.80
71205;BMP180;58935;54.498;18.544;2022-09-14T04:02:24;99091.20;;;13.88
71205;BMP180;58935;54.498;18.544;2022-09-14T04:04:50;99089.80;;;13.88
71205;BMP180;58935;54.498;18.544;2022-09-14T04:07:16;99098.00;;;13.90
71205;BMP180;58935;54.498;18.544;2022-09-14T04:09:42;99093.80;;;13.90
71205;BMP180;58935;54.498;18.544;2022-09-14T04:12:08;99092.00;;;13.90
71205;BMP180;58935;54.498;18.544;2022-09-14T04:14:34;99105.60;;;13.90
71205;BMP180;58935;54.498;18.544;2022-09-14T04:16:59;99108.60;;;13.90
71205;BMP180;58935;54.498;18.544;2022-09-14T04:19:25;99113.00;;;13.90
71205;BMP180;58935;54.498;18.544;2022-09-14T04:21:50;99120.60;;;13.90
71205;BMP180;58935;54.498;18.544;2022-09-14T04:24:15;99113.40;;;13.80
71205;BMP180;58935;54.498;18.544;2022-09-14T04:26:41;99122.20;;;13.80
71205;BMP180;58935;54.498;18.544;2022-09-14T04:29:09;99119.80;;;13.70
71205;BMP180;58935;54.498;18.544;2022-09-14T04:31:34;99122.40;;;13.60
71205;BMP180;58935;54.498;18.544;2022-09-14T04:34:00;99118.60;;;13.60
71205;BMP180;58935;54.498;18.544;2022-09-14T04:36:27;99109.80;;;13.50
71205;BMP180;58935;54.498;18.544;2022-09-14T04:38:56;99108.80;;;13.50
71205;BMP180;58935;54.498;18.544;2022-09-14T04:41:23;99106.40;;;13.42
71205;BMP180;58935;54.498;18.544;2022-09-14T04:43:49;99117.20;;;13.40
71205;BMP180;58935;54.498;18.544;2022-09-14T04:46:19;99105.20;;;13.40
71205;BMP180;58935;54.498;18.544;2022-09-14T04:48:45;99108.80;;;13.40
71205;BMP180;58935;54.498;18.544;2022-09-14T04:51:13;99107.20;;;13.46
71205;BMP180;58935;54.498;18.544;2022-09-14T04:53:41;99105.80;;;13.50
71205;BMP180;58935;54.498;18.544;2022-09-14T04:56:08;99108.20;;;13.60
71205;BMP180;58935;54.498;18.544;2022-09-14T04:58:36;99110.00;;;13.60
71205;BMP180;58935;54.498;18.544;2022-09-14T05:01:06;99113.20;;;13.70
71205;BMP180;58935;54.498;18.544;2022-09-14T05:03:32;99109.80;;;13.70
71205;BMP180;58935;54.498;18.544;2022-09-14T05:06:01;99112.60;;;13.80
71205;BMP180;58935;54.498;18.544;2022-09-14T05:08:27;99115.80;;;13.80
71205;BMP180;58935;54.498;18.544;2022-09-14T05:10:54;99114.40;;;13.90
71205;BMP180;58935;54.498;18.544;2022-09-14T05:13:20;99114.80;;;13.90
71205;BMP180;58935;54.498;18.544;2022-09-14T05:15:45;99109.80;;;13.90
71205;BMP180;58935;54.498;18.544;2022-09-14T05:18:11;99112.80;;;14.00
71205;BMP180;58935;54.498;18.544;2022-09-14T05:20:36;99115.00;;;14.00
71205;BMP180;58935;54.498;18.544;2022-09-14T05:23:01;99116.20;;;14.10
71205;BMP180;58935;54.498;18.544;2022-09-14T05:25:27;99112.40;;;14.10
71205;BMP180;58935;54.498;18.544;2022-09-14T05:27:52;99114.00;;;14.10
71205;BMP180;58935;54.498;18.544;2022-09-14T05:30:17;99114.00;;;14.10
71205;BMP180;58935;54.498;18.544;2022-09-14T05:32:43;99121.20;;;14.10
71205;BMP180;58935;54.498;18.544;2022-09-14T05:35:08;99119.20;;;14.10
71205;BMP180;58935;54.498;18.544;2022-09-14T05:37:33;99120.00;;;14.10
71205;BMP180;58935;54.498;18.544;2022-09-14T05:39:59;99120.40;;;14.20
71205;BMP180;58935;54.498;18.544;2022-09-14T05:42:24;99118.80;;;14.20
71205;BMP180;58935;54.498;18.544;2022-09-14T05:44:49;99125.40;;;14.30
71205;BMP180;58935;54.498;18.544;2022-09-14T05:47:15;99117.80;;;14.30
71205;BMP180;58935;54.498;18.544;2022-09-14T05:49:40;99125.00;;;14.36
71205;BMP180;58935;54.498;18.544;2022-09-14T05:52:05;99121.80;;;14.40
71205;BMP180;58935;54.498;18.544;2022-09-14T05:54:31;99127.40;;;14.40
71205;BMP180;58935;54.498;18.544;2022-09-14T05:56:56;99122.40;;;14.40
71205;BMP180;58935;54.498;18.544;2022-09-14T05:59:21;99126.20;;;14.40
71205;BMP180;58935;54.498;18.544;2022-09-14T06:01:47;99129.60;;;14.40
71205;BMP180;58935;54.498;18.544;2022-09-14T06:04:12;99121.40;;;14.30
71205;BMP180;58935;54.498;18.544;2022-09-14T06:06:37;99111.20;;;14.30
71205;BMP180;58935;54.498;18.544;2022-09-14T06:09:03;99119.20;;;14.30
71205;BMP180;58935;54.498;18.544;2022-09-14T06:11:32;99118.00;;;14.30
71205;BMP180;58935;54.498;18.544;2022-09-14T06:14:00;99123.20;;;14.30
71205;BMP180;58935;54.498;18.544;2022-09-14T06:16:26;99116.60;;;14.30
71205;BMP180;58935;54.498;18.544;2022-09-14T06:18:54;99121.80;;;14.30
71205;BMP180;58935;54.498;18.544;2022-09-14T06:21:20;99117.80;;;14.30
71205;BMP180;58935;54.498;18.544;2022-09-14T06:23:47;99116.60;;;14.30
71205;BMP180;58935;54.498;18.544;2022-09-14T06:26:13;99122.00;;;14.32
71205;BMP180;58935;54.498;18.544;2022-09-14T06:28:39;99120.40;;;14.40
71205;BMP180;58935;54.498;18.544;2022-09-14T06:31:05;99122.00;;;14.40
71205;BMP180;58935;54.498;18.544;2022-09-14T06:33:32;99106.00;;;14.40
71205;BMP180;58935;54.498;18.544;2022-09-14T06:36:01;99105.20;;;14.40
71205;BMP180;58935;54.498;18.544;2022-09-14T06:38:27;99104.40;;;14.50
71205;BMP180;58935;54.498;18.544;2022-09-14T06:40:56;99107.60;;;14.50
71205;BMP180;58935;54.498;18.544;2022-09-14T06:43:23;99096.60;;;14.50
71205;BMP180;58935;54.498;18.544;2022-09-14T06:45:54;99097.00;;;14.50
71205;BMP180;58935;54.498;18.544;2022-09-14T06:48:20;99085.20;;;14.50
71205;BMP180;58935;54.498;18.544;2022-09-14T06:50:45;99095.80;;;14.60
71205;BMP180;58935;54.498;18.544;2022-09-14T06:53:10;99084.60;;;14.60
71205;BMP180;58935;54.498;18.544;2022-09-14T06:55:36;99097.40;;;14.68
71205;BMP180;58935;54.498;18.544;2022-09-14T06:58:01;99097.60;;;14.70
71205;BMP180;58935;54.498;18.544;2022-09-14T07:00:26;99109.00;;;14.72
71205;BMP180;58935;54.498;18.544;2022-09-14T07:02:53;99107.00;;;14.80
71205;BMP180;58935;54.498;18.544;2022-09-14T07:05:18;99113.40;;;14.80
71205;BMP180;58935;54.498;18.544;2022-09-14T07:07:45;99125.00;;;14.80
71205;BMP180;58935;54.498;18.544;2022-09-14T07:10:10;99123.80;;;14.90
71205;BMP180;58935;54.498;18.544;2022-09-14T07:12:35;99126.40;;;14.90
71205;BMP180;58935;54.498;18.544;2022-09-14T07:15:01;99135.60;;;15.00
71205;BMP180;58935;54.498;18.544;2022-09-14T07:17:27;99141.80;;;15.10
71205;BMP180;58935;54.498;18.544;2022-09-14T07:19:52;99135.60;;;15.20
71205;BMP180;58935;54.498;18.544;2022-09-14T07:22:18;99135.00;;;15.20
71205;BMP180;58935;54.498;18.544;2022-09-14T07:24:43;99136.40;;;15.20
71205;BMP180;58935;54.498;18.544;2022-09-14T07:27:08;99136.00;;;15.10
71205;BMP180;58935;54.498;18.544;2022-09-14T07:29:34;99142.60;;;15.10
71205;BMP180;58935;54.498;18.544;2022-09-14T07:31:59;99140.40;;;15.00
71205;BMP180;58935;54.498;18.544;2022-09-14T07:34:24;99133.40;;;15.00
71205;BMP180;58935;54.498;18.544;2022-09-14T07:36:49;99138.60;;;15.00
71205;BMP180;58935;54.498;18.544;2022-09-14T07:39:16;99145.00;;;15.00
71205;BMP180;58935;54.498;18.544;2022-09-14T07:41:42;99151.00;;;15.00
71205;BMP180;58935;54.498;18.544;2022-09-14T07:44:08;99152.40;;;15.00
71205;BMP180;58935;54.498;18.544;2022-09-14T07:46:37;99150.80;;;15.10
71205;BMP180;58935;54.498;18.544;2022-09-14T07:49:04;99156.20;;;15.10
71205;BMP180;58935;54.498;18.544;2022-09-14T07:51:30;99163.40;;;15.18
71205;BMP180;58935;54.498;18.544;2022-09-14T07:53:57;99151.40;;;15.30
71205;BMP180;58935;54.498;18.544;2022-09-14T07:56:25;99127.40;;;15.40
71205;BMP180;58935;54.498;18.544;2022-09-14T07:58:53;99136.80;;;15.50
71205;BMP180;58935;54.498;18.544;2022-09-14T08:01:20;99161.80;;;15.60
71205;BMP180;58935;54.498;18.544;2022-09-14T08:03:46;99141.20;;;15.60
71205;BMP180;58935;54.498;18.544;2022-09-14T08:06:17;99166.00;;;15.58
71205;BMP180;58935;54.498;18.544;2022-09-14T08:08:44;99174.40;;;15.50
71205;BMP180;58935;54.498;18.544;2022-09-14T08:11:13;99162.40;;;15.60
71205;BMP180;58935;54.498;18.544;2022-09-14T08:13:42;99157.20;;;15.60
71205;BMP180;58935;54.498;18.544;2022-09-14T08:16:08;99148.60;;;15.60
71205;BMP180;58935;54.498;18.544;2022-09-14T08:18:35;99153.20;;;15.60
71205;BMP180;58935;54.498;18.544;2022-09-14T08:21:04;99145.40;;;15.68
71205;BMP180;58935;54.498;18.544;2022-09-14T08:23:29;99153.60;;;15.70
71205;BMP180;58935;54.498;18.544;2022-09-14T08:25:55;99139.00;;;15.70
71205;BMP180;58935;54.498;18.544;2022-09-14T08:28:20;99151.20;;;15.78
71205;BMP180;58935;54.498;18.544;2022-09-14T08:30:45;99140.40;;;15.80
71205;BMP180;58935;54.498;18.544;2022-09-14T08:33:11;99146.60;;;15.80
71205;BMP180;58935;54.498;18.544;2022-09-14T08:35:41;99139.40;;;15.80
71205;BMP180;58935;54.498;18.544;2022-09-14T08:38:06;99141.00;;;15.80
71205;BMP180;58935;54.498;18.544;2022-09-14T08:40:32;99125.60;;;15.80
71205;BMP180;58935;54.498;18.544;2022-09-14T08:43:01;99125.00;;;15.88
71205;BMP180;58935;54.498;18.544;2022-09-14T08:45:27;99127.80;;;15.90
71205;BMP180;58935;54.498;18.544;2022-09-14T08:47:54;99143.60;;;15.90
71205;BMP180;58935;54.498;18.544;2022-09-14T08:50:30;99140.60;;;15.96
71205;BMP180;58935;54.498;18.544;2022-09-14T08:52:58;99163.20;;;16.00
71205;BMP180;58935;54.498;18.544;2022-09-14T08:55:29;99145.40;;;16.04
71205;BMP180;58935;54.498;18.544;2022-09-14T08:58:02;99148.80;;;16.10
71205;BMP180;58935;54.498;18.544;2022-09-14T09:00:38;99153.60;;;16.10
71205;BMP180;58935;54.498;18.544;2022-09-14T09:08:32;99163.80;;;16.36
71205;BMP180;58935;54.498;18.544;2022-09-14T09:21:11;99175.80;;;16.70
71205;BMP180;58935;54.498;18.544;2022-09-14T09:23:39;99176.00;;;16.74
71205;BMP180;58935;54.498;18.544;2022-09-14T09:28:47;99172.60;;;16.90
71205;BMP180;58935;54.498;18.544;2022-09-14T09:31:14;99175.80;;;17.00
71205;BMP180;58935;54.498;18.544;2022-09-14T09:33:40;99176.60;;;17.00
71205;BMP180;58935;54.498;18.544;2022-09-14T09:36:07;99173.60;;;17.06
71205;BMP180;58935;54.498;18.544;2022-09-14T09:38:36;99176.20;;;17.10
71205;BMP180;58935;54.498;18.544;2022-09-14T09:41:07;99173.40;;;17.10
71205;BMP180;58935;54.498;18.544;2022-09-14T09:43:58;99174.60;;;17.10
71205;BMP180;58935;54.498;18.544;2022-09-14T09:46:27;99173.40;;;17.10
71205;BMP180;58935;54.498;18.544;2022-09-14T09:48:54;99169.40;;;17.14
71205;BMP180;58935;54.498;18.544;2022-09-14T09:51:30;99177.20;;;17.10
71205;BMP180;58935;54.498;18.544;2022-09-14T09:54:03;99192.00;;;17.00
71205;BMP180;58935;54.498;18.544;2022-09-14T09:56:32;99188.80;;;17.00
71205;BMP180;58935;54.498;18.544;2022-09-14T09:58:59;99199.80;;;17.00
71205;BMP180;58935;54.498;18.544;2022-09-14T10:01:28;99200.20;;;17.00
71205;BMP180;58935;54.498;18.544;2022-09-14T10:04:28;99195.40;;;17.08
71205;BMP180;58935;54.498;18.544;2022-09-14T10:06:44;99192.20;;;17.10
71205;BMP180;58935;54.498;18.544;2022-09-14T10:09:14;99191.80;;;17.10
71205;BMP180;58935;54.498;18.544;2022-09-14T10:11:41;99199.60;;;17.20
71205;BMP180;58935;54.498;18.544;2022-09-14T10:14:36;99185.80;;;17.20
71205;BMP180;58935;54.498;18.544;2022-09-14T10:17:07;99202.60;;;17.20
71205;BMP180;58935;54.498;18.544;2022-09-14T10:19:46;99195.40;;;17.22
71205;BMP180;58935;54.498;18.544;2022-09-14T10:22:18;99192.60;;;17.40
71205;BMP180;58935;54.498;18.544;2022-09-14T10:24:50;99177.80;;;17.50
71205;BMP180;58935;54.498;18.544;2022-09-14T10:27:28;99175.20;;;17.68
71205;BMP180;58935;54.498;18.544;2022-09-14T10:29:55;99183.60;;;17.80
71205;BMP180;58935;54.498;18.544;2022-09-14T10:32:22;99188.20;;;17.90
71205;BMP180;58935;54.498;18.544;2022-09-14T10:34:49;99191.20;;;18.00
71205;BMP180;58935;54.498;18.544;2022-09-14T10:37:23;99187.00;;;18.16
71205;BMP180;58935;54.498;18.544;2022-09-14T10:40:04;99187.80;;;18.20
71205;BMP180;58935;54.498;18.544;2022-09-14T10:42:38;99185.40;;;18.20
71205;BMP180;58935;54.498;18.544;2022-09-14T10:45:17;99178.20;;;18.20
71205;BMP180;58935;54.498;18.544;2022-09-14T10:48:03;99181.60;;;18.20
71205;BMP180;58935;54.498;18.544;2022-09-14T10:50:46;99192.00;;;18.20
71205;BMP180;58935;54.498;18.544;2022-09-14T10:55:55;99185.40;;;18.20
71205;BMP180;58935;54.498;18.544;2022-09-14T10:58:36;99176.20;;;18.20
71205;BMP180;58935;54.498;18.544;2022-09-14T11:01:12;99174.40;;;18.30
71205;BMP180;58935;54.498;18.544;2022-09-14T11:03:49;99177.20;;;18.40
71205;BMP180;58935;54.498;18.544;2022-09-14T11:06:30;99189.40;;;18.56
71205;BMP180;58935;54.498;18.544;2022-09-14T11:09:02;99193.20;;;18.70
71205;BMP180;58935;54.498;18.544;2022-09-14T11:11:36;99201.60;;;18.80
71205;BMP180;58935;54.498;18.544;2022-09-14T11:19:16;99197.40;;;18.80
71205;BMP180;58935;54.498;18.544;2022-09-14T11:21:50;99203.60;;;18.70
71205;BMP180;58935;54.498;18.544;2022-09-14T11:24:22;99189.00;;;18.76
71205;BMP180;58935;54.498;18.544;2022-09-14T11:29:27;99185.80;;;18.90
71205;BMP180;58935;54.498;18.544;2022-09-14T11:34:33;99199.20;;;18.88
71205;BMP180;58935;54.498;18.544;2022-09-14T11:37:05;99200.20;;;18.70
71205;BMP180;58935;54.498;18.544;2022-09-14T11:39:36;99197.60;;;18.60
71205;BMP180;58935;54.498;18.544;2022-09-14T11:42:09;99203.60;;;18.50
71205;BMP180;58935;54.498;18.544;2022-09-14T11:44:40;99201.60;;;18.36
71205;BMP180;58935;54.498;18.544;2022-09-14T11:49:59;99211.60;;;18.00
71205;BMP180;58935;54.498;18.544;2022-09-14T11:52:27;99208.80;;;17.88
71205;BMP180;58935;54.498;18.544;2022-09-14T11:54:54;99207.80;;;17.70
71205;BMP180;58935;54.498;18.544;2022-09-14T11:57:23;99206.40;;;17.60
71205;BMP180;58935;54.498;18.544;2022-09-14T11:59:52;99208.40;;;17.60
71205;BMP180;58935;54.498;18.544;2022-09-14T12:05:26;99203.40;;;17.68
71205;BMP180;58935;54.498;18.544;2022-09-14T12:08:03;99201.00;;;17.70
71205;BMP180;58935;54.498;18.544;2022-09-14T12:10:29;99206.00;;;17.72
71205;BMP180;58935;54.498;18.544;2022-09-14T12:15:33;99203.20;;;17.70
71205;BMP180;58935;54.498;18.544;2022-09-14T12:18:21;99211.20;;;17.70
71205;BMP180;58935;54.498;18.544;2022-09-14T12:20:58;99201.00;;;17.80
71205;BMP180;58935;54.498;18.544;2022-09-14T12:23:41;99200.80;;;17.90
71205;BMP180;58935;54.498;18.544;2022-09-14T12:26:25;99203.00;;;17.90
71205;BMP180;58935;54.498;18.544;2022-09-14T12:28:53;99206.20;;;17.90
71205;BMP180;58935;54.498;18.544;2022-09-14T12:36:58;99209.40;;;17.70
71205;BMP180;58935;54.498;18.544;2022-09-14T12:41:58;99228.40;;;17.34
71205;BMP180;58935;54.498;18.544;2022-09-14T12:44:27;99229.00;;;17.30
71205;BMP180;58935;54.498;18.544;2022-09-14T12:46:53;99225.80;;;17.24
71205;BMP180;58935;54.498;18.544;2022-09-14T12:51:50;99224.60;;;17.20
71205;BMP180;58935;54.498;18.544;2022-09-14T12:54:21;99226.40;;;17.10
71205;BMP180;58935;54.498;18.544;2022-09-14T12:57:04;99236.80;;;17.10
71205;BMP180;58935;54.498;18.544;2022-09-14T13:04:39;99223.40;;;17.36
71205;BMP180;58935;54.498;18.544;2022-09-14T13:07:13;99224.60;;;17.40
71205;BMP180;58935;54.498;18.544;2022-09-14T13:09:45;99220.60;;;17.40
71205;BMP180;58935;54.498;18.544;2022-09-14T13:12:14;99217.60;;;17.50
71205;BMP180;58935;54.498;18.544;2022-09-14T13:14:48;99226.20;;;17.48
71205;BMP180;58935;54.498;18.544;2022-09-14T13:17:15;99234.40;;;17.40
71205;BMP180;58935;54.498;18.544;2022-09-14T13:19:41;99230.00;;;17.30
71205;BMP180;58935;54.498;18.544;2022-09-14T13:24:42;99232.20;;;17.30
71205;BMP180;58935;54.498;18.544;2022-09-14T13:27:31;99231.20;;;17.30
71205;BMP180;58935;54.498;18.544;2022-09-14T13:32:29;99230.00;;;17.46
71205;BMP180;58935;54.498;18.544;2022-09-14T13:34:55;99243.80;;;17.50
71205;BMP180;58935;54.498;18.544;2022-09-14T13:37:22;99230.40;;;17.50
71205;BMP180;58935;54.498;18.544;2022-09-14T13:39:50;99230.20;;;17.40
71205;BMP180;58935;54.498;18.544;2022-09-14T13:42:16;99239.40;;;17.40
71205;BMP180;58935;54.498;18.544;2022-09-14T13:44:43;99242.00;;;17.40
71205;BMP180;58935;54.498;18.544;2022-09-14T13:47:12;99239.80;;;17.30
71205;BMP180;58935;54.498;18.544;2022-09-14T13:49:39;99241.20;;;17.30
71205;BMP180;58935;54.498;18.544;2022-09-14T13:54:44;99213.20;;;17.20
71205;BMP180;58935;54.498;18.544;2022-09-14T13:57:14;99210.60;;;17.20
71205;BMP180;58935;54.498;18.544;2022-09-14T14:02:12;99208.20;;;17.30
71205;BMP180;58935;54.498;18.544;2022-09-14T14:04:38;99203.20;;;17.40
71205;BMP180;58935;54.498;18.544;2022-09-14T14:07:14;99204.00;;;17.60
71205;BMP180;58935;54.498;18.544;2022-09-14T14:09:46;99211.40;;;17.76
71205;BMP180;58935;54.498;18.544;2022-09-14T14:12:23;99205.40;;;17.94
71205;BMP180;58935;54.498;18.544;2022-09-14T14:14:53;99208.80;;;18.12
71205;BMP180;58935;54.498;18.544;2022-09-14T14:17:23;99206.60;;;18.30
71205;BMP180;58935;54.498;18.544;2022-09-14T14:19:51;99217.80;;;18.30
71205;BMP180;58935;54.498;18.544;2022-09-14T14:22:23;99197.00;;;18.10
71205;BMP180;58935;54.498;18.544;2022-09-14T14:24:50;99204.20;;;18.10
71205;BMP180;58935;54.498;18.544;2022-09-14T14:27:27;99190.80;;;18.20
71205;BMP180;58935;54.498;18.544;2022-09-14T14:29:53;99203.20;;;18.20
71205;BMP180;58935;54.498;18.544;2022-09-14T14:32:19;99205.80;;;18.20
71205;BMP180;58935;54.498;18.544;2022-09-14T14:34:44;99204.20;;;18.30
71205;BMP180;58935;54.498;18.544;2022-09-14T14:37:10;99198.40;;;18.40
71205;BMP180;58935;54.498;18.544;2022-09-14T14:39:36;99190.80;;;18.50
71205;BMP180;58935;54.498;18.544;2022-09-14T14:42:01;99198.20;;;18.62
71205;BMP180;58935;54.498;18.544;2022-09-14T14:44:27;99191.00;;;18.70
71205;BMP180;58935;54.498;18.544;2022-09-14T14:46:54;99197.60;;;18.74
71205;BMP180;58935;54.498;18.544;2022-09-14T14:49:20;99199.80;;;18.70
71205;BMP180;58935;54.498;18.544;2022-09-14T14:51:47;99194.40;;;18.60
71205;BMP180;58935;54.498;18.544;2022-09-14T14:54:12;99198.60;;;18.70
71205;BMP180;58935;54.498;18.544;2022-09-14T14:56:42;99190.00;;;18.70
71205;BMP180;58935;54.498;18.544;2022-09-14T15:01:39;99189.00;;;18.70
71205;BMP180;58935;54.498;18.544;2022-09-14T15:04:04;99186.00;;;18.70
71205;BMP180;58935;54.498;18.544;2022-09-14T15:06:29;99183.00;;;18.70
71205;BMP180;58935;54.498;18.544;2022-09-14T15:08:55;99174.80;;;18.80
71205;BMP180;58935;54.498;18.544;2022-09-14T15:11:21;99186.20;;;18.80
71205;BMP180;58935;54.498;18.544;2022-09-14T15:13:47;99182.60;;;18.76
71205;BMP180;58935;54.498;18.544;2022-09-14T15:16:13;99186.80;;;18.70
71205;BMP180;58935;54.498;18.544;2022-09-14T15:18:39;99188.00;;;18.70
71205;BMP180;58935;54.498;18.544;2022-09-14T15:21:05;99196.60;;;18.60
71205;BMP180;58935;54.498;18.544;2022-09-14T15:23:32;99202.80;;;18.34
71205;BMP180;58935;54.498;18.544;2022-09-14T15:25:58;99208.80;;;18.20